»·PEaware :: N413C KMYF-KCRQ

N413C :: KMYF-KCRQ

FLIGHT INFORMATION

Flight Status: Arrived
Operator: Privately registered:
United States
More flights under this callsign
Pilot: Alec D. (17934)
Aircraft: PIPER PA-28 CHEROKEE ARCHER
(P28A)
More flights by this aircraft type
Origin: KMYF Montgomery
United States
Destination: KCRQ McClellan-Palomar
United States
More flights between these airports :: More routes between these airports
Route: OCN
File this flight plan on PilotEdge
Remarks:
Altitude:
(Current/Filed)
4,000ft
Speed:
(Current/Filed)
105kts
Departed: 15-Jun-18 07:14 AM
Arrived: 15-Jun-18 07:44 AM
Distance/Time
Traveled:
20nm/0:29
Distance/Time
To Go:
Arrived

Flight Plot

Page will automatically refresh every two minutes.


Map Options




Map Legend


Flown Route
Filed Route
Departure Airport
Arrival Airport
Navaid (VOR, NDB)
Fix

Horizontal Profiles

Position Reports

Time Latitude Longitude Heading Altitude Ground
Speed
15-Jun-18 06:56 32.812894 -117.140493 201 429ft 0kts
15-Jun-18 06:57 32.812894 -117.140493 201 429ft 0kts
15-Jun-18 06:58 32.812894 -117.140493 201 429ft 0kts
15-Jun-18 06:59 32.812890 -117.140494 201 429ft 0kts
15-Jun-18 07:00 32.812887 -117.140496 201 429ft 0kts
15-Jun-18 07:01 32.812884 -117.140498 201 429ft 0kts
15-Jun-18 07:02 32.812880 -117.140500 201 429ft 0kts
15-Jun-18 07:03 32.812876 -117.140501 201 429ft 0kts
15-Jun-18 07:04 32.812872 -117.140503 201 429ft 0kts
15-Jun-18 07:05 32.812869 -117.140505 201 429ft 0kts
15-Jun-18 07:06 32.812865 -117.140507 201 429ft 0kts
15-Jun-18 07:07 32.812921 -117.140444 351 429ft 6kts
15-Jun-18 07:08 32.812914 -117.137008 102 429ft 7kts
15-Jun-18 07:09 32.812795 -117.136048 352 429ft 0kts
15-Jun-18 07:10 32.812805 -117.136049 352 429ft 0kts
15-Jun-18 07:11 32.812807 -117.136050 352 429ft 0kts
15-Jun-18 07:12 32.812809 -117.136050 352 429ft 0kts
15-Jun-18 07:13 32.812865 -117.136052 5 429ft 3kts
15-Jun-18 07:14 32.818865 -117.152380 286 779ft 87kts
15-Jun-18 07:15 32.824464 -117.180949 281 1477ft 90kts
15-Jun-18 07:16 32.832583 -117.209658 285 2065ft 91kts
15-Jun-18 07:17 32.839275 -117.238616 280 2601ft 91kts
15-Jun-18 07:18 32.846142 -117.266457 322 3111ft 88kts
15-Jun-18 07:19 32.870817 -117.274540 343 3508ft 94kts
15-Jun-18 07:20 32.895721 -117.283227 342 3903ft 94kts
15-Jun-18 07:21 32.921563 -117.294164 334 4047ft 103kts
15-Jun-18 07:22 32.949464 -117.307261 335 3995ft 110kts
15-Jun-18 07:23 32.977308 -117.319841 337 4062ft 107kts
15-Jun-18 07:24 33.005592 -117.332607 332 4031ft 109kts
15-Jun-18 07:25 33.034351 -117.345559 339 3983ft 109kts
15-Jun-18 07:26 33.057698 -117.332890 70 4005ft 109kts
15-Jun-18 07:27 33.068909 -117.298669 68 3978ft 110kts
15-Jun-18 07:28 33.080368 -117.265059 69 3994ft 109kts
15-Jun-18 07:29 33.092060 -117.231440 69 4009ft 109kts
15-Jun-18 07:30 33.102637 -117.197087 70 3980ft 110kts
15-Jun-18 07:31 33.109551 -117.161770 80 3985ft 108kts
15-Jun-18 07:32 33.116400 -117.126405 76 4030ft 109kts
15-Jun-18 07:33 33.122318 -117.090980 81 4016ft 111kts
15-Jun-18 07:34 33.128554 -117.055152 78 3997ft 111kts
15-Jun-18 07:35 33.137419 -117.020561 39 4020ft 110kts
15-Jun-18 07:36 33.156977 -117.040233 275 3687ft 120kts
15-Jun-18 07:37 33.157909 -117.076564 250 3459ft 98kts
15-Jun-18 07:38 33.154081 -117.108712 260 3198ft 103kts
15-Jun-18 07:39 33.149560 -117.142595 261 2653ft 106kts
15-Jun-18 07:40 33.145047 -117.177052 257 2026ft 100kts
15-Jun-18 07:41 33.139367 -117.208899 258 1438ft 96kts
15-Jun-18 07:42 33.134883 -117.239039 256 948ft 86kts
15-Jun-18 07:43 33.130894 -117.263693 258 531ft 70kts
15-Jun-18 07:44 33.127986 -117.281658 262 333ft 33kts
15-Jun-18 07:45 33.126887 -117.282153 78 333ft 13kts
15-Jun-18 07:46 33.127070 -117.277830 257 333ft 0kts
15-Jun-18 07:47 33.127069 -117.277832 257 333ft 0kts
15-Jun-18 07:48 33.127069 -117.277832 257 333ft 0kts
15-Jun-18 07:49 33.127069 -117.277832 257 333ft 0kts
15-Jun-18 07:50 33.127069 -117.277832 257 333ft 0kts
15-Jun-18 07:51 33.127069 -117.277832 257 333ft 0kts
15-Jun-18 07:52 33.127069 -117.277832 257 333ft 0kts

Navigation Log

Ident Type
Flight plan parsing failed, navigation log unavailable